Terminal Aerodrome Forecast
Issued by NWS

Home | Current Version | Previous Version | Text Only | Print | Product List | Glossary On
Versions: 1 2 3 4 5 6 7 8 9 10 11 12
000
FTUS43 KSGF 291720
TAFBBG
TAF
KBBG 291720Z 2918/3018 10004KT P6SM SCT250
     FM300300 00000KT P6SM SCT250
     FM300800 00000KT 4SM BR BKN200
     FM301300 VRB03KT P6SM BKN120=

USA.gov is the U.S. government's official web portal to all federal, state and local government web resources and services.